• Join FlightAware (Why Join?)
  • Login
  • US Flag 
10:33AM EDT


 

Airport Tracker/Info


-or-


 

Live Flight TrackerFlight Track Log ✈ N779NC ✈ 30-Jun-2013 ✈ KATL - KLIT

Flight Track Log - Related Links

Times and Time Zones

All times are in EDT time to prevent confusion due to time zone crossing. See the N779NC flight status page for this flight to view local times or setup timezone preferences in your user account.

Time Position Orientation Groundspeed Altitude Reporting Facility
EDT Latitude Longitude Course Direction KTS MPH feet Rate Location/Type
10:23AM 33.6500 -84.4667 270° West 170 196 2,200  Level Atlanta TRACON
10:24AM 33.6906 -84.6131 288° West 317 365 6,300 2,280 Climbing Atlanta Center
10:25AM 33.6759 -84.8099 277° West  Level FlightAware Approximate
10:25AM 33.7278 -84.7133 294° West 284 327 8,900  Level Atlanta Center
10:26AM 33.6894 -84.9255 280° West  Level FlightAware Approximate
10:26AM 33.7586 -84.7933 295° West 303 349 11,100  Level Atlanta Center
10:27AM 33.7075 -85.0520 280° West  Level FlightAware Approximate
10:27AM 33.7619 -84.8958 272° West 310 357 12,600  Level Atlanta Center
10:28AM 33.7167 -85.1794 270° West  Level FlightAware Approximate
10:28AM 33.7592 -85.0083 268° West 325 374 13,900  Level Atlanta Center
10:29AM 33.7561 -85.1256 268° West 350 403 15,800 1,680 Climbing Atlanta Center
10:30AM 33.7592 -85.2481 272° West 356 410 17,300 1,260 Climbing Atlanta Center
10:31AM 33.7786 -85.3783 280° West 384 442 18,400 1,200 Climbing Atlanta Center
10:32AM 33.7897 -85.4936 277° West 391 450 19,700 1,380 Climbing Atlanta Center
10:33AM 33.8111 -85.6289 281° West 405 466 21,200 1,500 Climbing Atlanta Center
10:34AM 33.8344 -85.7644 282° West 412 474 22,700 1,320 Climbing Atlanta Center
10:35AM 33.8533 -85.8897 280° West 406 467 23,900 1,200 Climbing Atlanta Center
10:36AM 33.8783 -86.0281 282° West 406 467 25,100 1,200 Climbing Atlanta Center
10:37AM 33.9011 -86.1636 281° West 416 479 26,400 1,260 Climbing Atlanta Center
10:38AM 33.9300 -86.2972 285° West 416 479 27,700 780 Climbing Atlanta Center
10:39AM 33.9547 -86.4331 282° West 416 479 28,000 60 Climbing Atlanta Center
10:41AM 34.0086 -86.7164 283° West 434 499 28,000  Level Memphis Center
10:42AM 34.0378 -86.8631 284° West 434 499 28,000  Level Memphis Center
10:43AM 34.0689 -87.0047 285° West 444 511 28,000  Level Memphis Center
10:44AM 34.0978 -87.1489 284° West 444 511 28,000  Level Memphis Center
10:45AM 34.1306 -87.2933 285° West 449 517 28,000  Level Memphis Center
10:46AM 34.1633 -87.4378 285° West 449 517 28,000  Level Memphis Center
10:47AM 34.1956 -87.5672 287° West 449 517 28,000  Level Memphis Center
10:48AM 34.2319 -87.7092 287° West 449 517 28,000  Level Memphis Center
10:49AM 34.2664 -87.8514 286° West 449 517 28,000  Level Memphis Center
10:50AM 34.3047 -87.9961 288° West 449 517 28,000  Level Memphis Center
10:51AM 34.3344 -88.1411 284° West 454 522 28,000  Level Memphis Center
10:52AM 34.3644 -88.3064 282° West 460 529 28,000  Level Memphis Center
10:53AM 34.3897 -88.4544 282° West 460 529 28,000  Level Memphis Center
10:54AM 34.4003 -88.6053 275° West 460 529 28,000  Level Memphis Center
10:55AM 34.4086 -88.7561 274° West 460 529 28,000  Level Memphis Center
10:56AM 34.4144 -88.9019 273° West 450 518 28,000  Level Memphis Center
10:57AM 34.4225 -89.0553 274° West 450 518 28,000  Level Memphis Center
10:58AM 34.4281 -89.2039 273° West 450 518 28,000  Level Memphis Center
10:59AM 34.4336 -89.3550 273° West 450 518 28,000  Level Memphis Center
11:00AM 34.4411 -89.5058 273° West 450 518 28,000  Level Memphis Center
11:01AM 34.4461 -89.6394 273° West 450 518 28,000  Level Memphis Center
11:02AM 34.4531 -89.7878 273° West 450 518 28,000 -300 Level Memphis Center
11:03AM 34.4578 -89.9389 272° West 450 518 27,400 -900 Descending Memphis Center
11:04AM 34.4667 -90.0875 274° West 444 511 26,200 -1,080 Descending Memphis Center
11:05AM 34.4753 -90.2436 274° West 431 496 25,300 -1,020 Descending Memphis Center
11:06AM 34.4836 -90.3875 274° West 431 496 24,200 -1,140 Descending Memphis Center
11:07AM 34.4919 -90.5258 274° West 421 484 23,100 -1,140 Descending Memphis Center
11:08AM 34.5000 -90.6672 274° West 421 484 22,000 -960 Descending Memphis Center
11:09AM 34.5078 -90.8083 274° West 421 484 21,200 -1,440 Descending Memphis Center
11:10AM 34.5200 -90.9419 276° West 415 478 19,200 -2,400 Descending Memphis Center
11:11AM 34.5275 -91.0681 274° West 398 458 16,400 -2,820 Descending Memphis Center
11:12AM 34.5333 -91.1539 275° West 373 429 14,500 -2,520 Descending Memphis Center
11:13AM 34.5389 -91.2422 274° West 368 423 12,900 -2,100 Descending Memphis Center
11:13AM 34.5447 -91.3003 277° West 369 425 11,800 -1,860 Descending Memphis Center
11:14AM 34.5586 -91.4164 278° West 362 417 10,000 -900 Descending Memphis Center
11:15AM 34.5742 -91.5250 280° West 342 394 10,000 -60 Level Memphis Center
11:16AM 34.5942 -91.6311 283° West 331 381 9,900 -780 Descending Memphis Center
11:17AM 34.6139 -91.7222 285° West 300 345 8,500 -1,440 Descending Memphis Center
11:18AM 34.6086 -91.8233 266° West 283 326 7,100 -1,260 Descending Memphis Center
11:19AM 34.6056 -91.9114 268° West 272 313 6,000 -1,140 Descending Memphis Center
11:20AM 34.6022 -91.9972 267° West 267 307 4,900 -600 Descending Memphis Center
11:21AM 34.5989 -92.0881 267° West 273 314 4,900  Level Memphis Center
11:22AM 34.5956 -92.1761 267° West 273 314 4,900  Level Memphis Center
11:23AM 34.5950 -92.2217 269° West 245 282 4,900 -420 Level Memphis Center
11:23AM 34.5967 -92.2569 273° West 268 308 4,500 -1,680 Descending Memphis Center
11:24AM 34.5917 -92.2997 262° West 230 265 3,200 -2,520 Descending Memphis Center